sensor_id;sensor_type;location;lat;lon;timestamp;pressure;altitude;pressure_sealevel;temperature;humidity
79799;BME280;69283;48.024;11.090;2023-05-21T00:01:33;94973.78;;;12.75;75.55
79799;BME280;69283;48.024;11.090;2023-05-21T00:03:58;94974.50;;;12.72;75.45
79799;BME280;69283;48.024;11.090;2023-05-21T00:06:24;94977.16;;;12.69;75.74
79799;BME280;69283;48.024;11.090;2023-05-21T00:08:49;94978.69;;;12.66;75.89
79799;BME280;69283;48.024;11.090;2023-05-21T00:11:15;94972.72;;;12.61;75.95
79799;BME280;69283;48.024;11.090;2023-05-21T00:13:40;94978.09;;;12.57;75.99
79799;BME280;69283;48.024;11.090;2023-05-21T00:16:06;94967.16;;;12.54;75.90
79799;BME280;69283;48.024;11.090;2023-05-21T00:18:31;94964.00;;;12.52;76.07
79799;BME280;69283;48.024;11.090;2023-05-21T00:20:58;94968.66;;;12.51;75.70
79799;BME280;69283;48.024;11.090;2023-05-21T00:23:23;94967.44;;;12.48;75.52
79799;BME280;69283;48.024;11.090;2023-05-21T00:25:51;94976.38;;;12.49;75.62
79799;BME280;69283;48.024;11.090;2023-05-21T00:28:16;94969.44;;;12.52;75.41
79799;BME280;69283;48.024;11.090;2023-05-21T00:30:42;94975.59;;;12.48;75.21
79799;BME280;69283;48.024;11.090;2023-05-21T00:33:07;94970.81;;;12.42;75.64
79799;BME280;69283;48.024;11.090;2023-05-21T00:35:34;94972.63;;;12.38;75.21
79799;BME280;69283;48.024;11.090;2023-05-21T00:38:00;94965.19;;;12.35;75.61
79799;BME280;69283;48.024;11.090;2023-05-21T00:40:25;94958.56;;;12.32;75.58
79799;BME280;69283;48.024;11.090;2023-05-21T00:42:53;94970.50;;;12.28;75.81
79799;BME280;69283;48.024;11.090;2023-05-21T00:45:21;94961.47;;;12.24;75.73
79799;BME280;69283;48.024;11.090;2023-05-21T00:47:48;94963.31;;;12.19;75.88
79799;BME280;69283;48.024;11.090;2023-05-21T00:50:13;94953.81;;;12.10;76.05
79799;BME280;69283;48.024;11.090;2023-05-21T00:52:39;94955.03;;;12.12;76.04
79799;BME280;69283;48.024;11.090;2023-05-21T00:55:07;94956.88;;;12.08;76.12
79799;BME280;69283;48.024;11.090;2023-05-21T00:57:34;94957.22;;;12.07;76.18
79799;BME280;69283;48.024;11.090;2023-05-21T01:00:01;94953.38;;;12.08;76.38
79799;BME280;69283;48.024;11.090;2023-05-21T01:02:28;94954.00;;;12.01;76.15
79799;BME280;69283;48.024;11.090;2023-05-21T01:04:58;94952.09;;;12.02;76.11
79799;BME280;69283;48.024;11.090;2023-05-21T01:07:24;94952.78;;;11.99;76.30
79799;BME280;69283;48.024;11.090;2023-05-21T01:09:50;94954.28;;;11.96;76.25
79799;BME280;69283;48.024;11.090;2023-05-21T01:12:16;94955.84;;;11.97;76.35
79799;BME280;69283;48.024;11.090;2023-05-21T01:14:42;94951.84;;;11.91;76.15
79799;BME280;69283;48.024;11.090;2023-05-21T01:17:09;94953.69;;;11.87;76.51
79799;BME280;69283;48.024;11.090;2023-05-21T01:19:35;94956.41;;;11.87;76.65
79799;BME280;69283;48.024;11.090;2023-05-21T01:22:05;94950.00;;;11.79;76.74
79799;BME280;69283;48.024;11.090;2023-05-21T01:24:31;94951.41;;;11.73;76.89
79799;BME280;69283;48.024;11.090;2023-05-21T01:26:57;94940.53;;;11.73;76.72
79799;BME280;69283;48.024;11.090;2023-05-21T01:29:23;94938.25;;;11.75;76.94
79799;BME280;69283;48.024;11.090;2023-05-21T01:32:09;94940.19;;;11.75;76.79
79799;BME280;69283;48.024;11.090;2023-05-21T01:40:30;94933.47;;;11.69;76.64
79799;BME280;69283;48.024;11.090;2023-05-21T01:42:58;94927.88;;;11.62;76.67
79799;BME280;69283;48.024;11.090;2023-05-21T01:45:24;94928.03;;;11.53;76.91
79799;BME280;69283;48.024;11.090;2023-05-21T01:47:53;94922.53;;;11.49;77.69
79799;BME280;69283;48.024;11.090;2023-05-21T01:50:22;94923.69;;;11.48;77.35
79799;BME280;69283;48.024;11.090;2023-05-21T01:52:51;94925.97;;;11.46;77.30
79799;BME280;69283;48.024;11.090;2023-05-21T01:55:17;94926.41;;;11.48;77.35
79799;BME280;69283;48.024;11.090;2023-05-21T01:57:42;94927.63;;;11.51;77.31
79799;BME280;69283;48.024;11.090;2023-05-21T02:00:08;94929.81;;;11.45;77.61
79799;BME280;69283;48.024;11.090;2023-05-21T02:02:34;94933.66;;;11.44;77.56
79799;BME280;69283;48.024;11.090;2023-05-21T02:05:00;94931.47;;;11.50;77.61
79799;BME280;69283;48.024;11.090;2023-05-21T02:07:25;94926.25;;;11.41;77.46
79799;BME280;69283;48.024;11.090;2023-05-21T02:09:52;94934.09;;;11.46;77.37
79799;BME280;69283;48.024;11.090;2023-05-21T02:12:18;94934.47;;;11.45;77.58
79799;BME280;69283;48.024;11.090;2023-05-21T02:14:43;94931.56;;;11.38;77.96
79799;BME280;69283;48.024;11.090;2023-05-21T02:17:10;94932.59;;;11.33;77.92
79799;BME280;69283;48.024;11.090;2023-05-21T02:19:35;94930.59;;;11.30;77.93
79799;BME280;69283;48.024;11.090;2023-05-21T02:22:01;94933.75;;;11.32;78.15
79799;BME280;69283;48.024;11.090;2023-05-21T02:24:26;94931.47;;;11.34;78.53
79799;BME280;69283;48.024;11.090;2023-05-21T02:26:51;94922.63;;;11.37;77.95
79799;BME280;69283;48.024;11.090;2023-05-21T02:29:17;94922.53;;;11.34;77.91
79799;BME280;69283;48.024;11.090;2023-05-21T02:31:42;94929.53;;;11.35;78.22
79799;BME280;69283;48.024;11.090;2023-05-21T02:34:07;94931.38;;;11.31;78.39
79799;BME280;69283;48.024;11.090;2023-05-21T02:36:33;94918.25;;;11.33;77.72
79799;BME280;69283;48.024;11.090;2023-05-21T02:39:00;94918.19;;;11.29;78.70
79799;BME280;69283;48.024;11.090;2023-05-21T02:41:26;94927.03;;;11.26;78.60
79799;BME280;69283;48.024;11.090;2023-05-21T02:43:51;94920.47;;;11.27;79.00
79799;BME280;69283;48.024;11.090;2023-05-21T02:46:16;94917.75;;;11.27;78.59
79799;BME280;69283;48.024;11.090;2023-05-21T02:48:41;94921.59;;;11.26;78.57
79799;BME280;69283;48.024;11.090;2023-05-21T02:51:07;94919.31;;;11.28;78.74
79799;BME280;69283;48.024;11.090;2023-05-21T02:53:32;94915.75;;;11.24;78.91
79799;BME280;69283;48.024;11.090;2023-05-21T02:55:57;94914.59;;;11.25;78.52
79799;BME280;69283;48.024;11.090;2023-05-21T02:58:22;94912.66;;;11.25;78.57
79799;BME280;69283;48.024;11.090;2023-05-21T03:00:49;94913.69;;;11.21;78.35
79799;BME280;69283;48.024;11.090;2023-05-21T03:03:15;94917.56;;;11.20;78.57
79799;BME280;69283;48.024;11.090;2023-05-21T03:05:40;94914.75;;;11.16;78.83
79799;BME280;69283;48.024;11.090;2023-05-21T03:08:05;94922.38;;;11.11;78.96
79799;BME280;69283;48.024;11.090;2023-05-21T03:10:31;94917.03;;;11.14;78.75
79799;BME280;69283;48.024;11.090;2023-05-21T03:12:56;94917.31;;;11.09;79.06
79799;BME280;69283;48.024;11.090;2023-05-21T03:15:21;94911.53;;;11.11;78.61
79799;BME280;69283;48.024;11.090;2023-05-21T03:17:50;94913.09;;;11.12;78.85
79799;BME280;69283;48.024;11.090;2023-05-21T03:20:18;94913.44;;;11.10;78.59
79799;BME280;69283;48.024;11.090;2023-05-21T03:22:43;94910.66;;;11.07;79.12
79799;BME280;69283;48.024;11.090;2023-05-21T03:25:10;94909.88;;;11.06;78.82
79799;BME280;69283;48.024;11.090;2023-05-21T03:27:39;94908.81;;;11.11;78.76
79799;BME280;69283;48.024;11.090;2023-05-21T03:30:05;94907.50;;;11.05;79.17
79799;BME280;69283;48.024;11.090;2023-05-21T03:32:30;94907.75;;;11.00;78.93
79799;BME280;69283;48.024;11.090;2023-05-21T03:34:58;94910.47;;;11.00;79.15
79799;BME280;69283;48.024;11.090;2023-05-21T03:37:23;94909.84;;;10.90;79.38
79799;BME280;69283;48.024;11.090;2023-05-21T03:39:48;94906.88;;;10.95;79.24
79799;BME280;69283;48.024;11.090;2023-05-21T03:42:14;94905.75;;;10.96;79.15
79799;BME280;69283;48.024;11.090;2023-05-21T03:44:39;94920.88;;;10.82;79.44
79799;BME280;69283;48.024;11.090;2023-05-21T03:47:04;94916.22;;;10.82;79.27
79799;BME280;69283;48.024;11.090;2023-05-21T03:49:30;94907.31;;;10.82;79.80
79799;BME280;69283;48.024;11.090;2023-05-21T03:51:55;94907.31;;;10.82;79.92
79799;BME280;69283;48.024;11.090;2023-05-21T03:54:20;94902.56;;;10.79;80.02
79799;BME280;69283;48.024;11.090;2023-05-21T03:56:45;94903.34;;;10.79;79.77
79799;BME280;69283;48.024;11.090;2023-05-21T03:59:11;94912.63;;;10.78;79.77
79799;BME280;69283;48.024;11.090;2023-05-21T04:01:36;94912.19;;;10.76;79.51
79799;BME280;69283;48.024;11.090;2023-05-21T04:04:03;94918.03;;;10.78;79.61
79799;BME280;69283;48.024;11.090;2023-05-21T04:06:28;94914.53;;;10.78;79.87
79799;BME280;69283;48.024;11.090;2023-05-21T04:08:54;94918.03;;;10.78;80.50
79799;BME280;69283;48.024;11.090;2023-05-21T04:11:19;94920.75;;;10.78;79.89
79799;BME280;69283;48.024;11.090;2023-05-21T04:13:45;94925.50;;;10.81;79.98
79799;BME280;69283;48.024;11.090;2023-05-21T04:16:12;94924.25;;;10.79;80.46
79799;BME280;69283;48.024;11.090;2023-05-21T04:18:39;94921.97;;;10.81;79.64
79799;BME280;69283;48.024;11.090;2023-05-21T04:21:04;94924.59;;;10.77;80.34
79799;BME280;69283;48.024;11.090;2023-05-21T04:23:30;94927.56;;;10.72;80.74
79799;BME280;69283;48.024;11.090;2023-05-21T04:25:55;94927.31;;;10.77;79.84
79799;BME280;69283;48.024;11.090;2023-05-21T04:28:20;94924.94;;;10.76;80.33
79799;BME280;69283;48.024;11.090;2023-05-21T04:30:46;94930.91;;;10.81;80.83
79799;BME280;69283;48.024;11.090;2023-05-21T04:33:12;94927.59;;;10.88;80.29
79799;BME280;69283;48.024;11.090;2023-05-21T04:35:42;94939.06;;;10.81;80.19
79799;BME280;69283;48.024;11.090;2023-05-21T04:38:08;94929.66;;;10.79;80.98
79799;BME280;69283;48.024;11.090;2023-05-21T04:40:34;94939.50;;;10.83;81.08
79799;BME280;69283;48.024;11.090;2023-05-21T04:42:59;94943.06;;;10.87;81.10
79799;BME280;69283;48.024;11.090;2023-05-21T04:45:25;94936.53;;;10.88;80.86
79799;BME280;69283;48.024;11.090;2023-05-21T04:47:51;94949.81;;;10.93;80.44
79799;BME280;69283;48.024;11.090;2023-05-21T04:50:16;94946.41;;;10.96;80.74
79799;BME280;69283;48.024;11.090;2023-05-21T04:52:42;94954.31;;;11.02;80.17
79799;BME280;69283;48.024;11.090;2023-05-21T04:55:09;94958.91;;;11.01;80.47
79799;BME280;69283;48.024;11.090;2023-05-21T04:57:35;94950.53;;;11.06;81.14
79799;BME280;69283;48.024;11.090;2023-05-21T05:00:00;94948.34;;;11.12;81.11
79799;BME280;69283;48.024;11.090;2023-05-21T05:02:26;94952.28;;;11.14;80.81
79799;BME280;69283;48.024;11.090;2023-05-21T05:04:51;94943.88;;;11.19;80.49
79799;BME280;69283;48.024;11.090;2023-05-21T05:07:16;94944.88;;;11.27;80.91
79799;BME280;69283;48.024;11.090;2023-05-21T05:09:42;94944.16;;;11.30;80.61
79799;BME280;69283;48.024;11.090;2023-05-21T05:12:07;94943.53;;;11.37;80.68
79799;BME280;69283;48.024;11.090;2023-05-21T05:14:32;94943.72;;;11.44;80.59
79799;BME280;69283;48.024;11.090;2023-05-21T05:16:58;94940.03;;;11.52;80.14
79799;BME280;69283;48.024;11.090;2023-05-21T05:19:24;94938.72;;;11.62;79.47
79799;BME280;69283;48.024;11.090;2023-05-21T05:21:49;94943.53;;;11.68;79.26
79799;BME280;69283;48.024;11.090;2023-05-21T05:24:14;94937.13;;;11.76;79.24
79799;BME280;69283;48.024;11.090;2023-05-21T05:26:40;94938.53;;;11.86;78.52
79799;BME280;69283;48.024;11.090;2023-05-21T05:29:05;94938.69;;;11.93;78.54
79799;BME280;69283;48.024;11.090;2023-05-21T05:31:30;94940.41;;;12.01;77.92
79799;BME280;69283;48.024;11.090;2023-05-21T05:33:56;94946.81;;;12.09;77.71
79799;BME280;69283;48.024;11.090;2023-05-21T05:36:22;94949.03;;;12.23;78.08
79799;BME280;69283;48.024;11.090;2023-05-21T05:38:48;94961.28;;;12.32;77.29
79799;BME280;69283;48.024;11.090;2023-05-21T05:41:13;94952.22;;;12.44;77.61
79799;BME280;69283;48.024;11.090;2023-05-21T05:43:38;94951.56;;;12.51;75.98
79799;BME280;69283;48.024;11.090;2023-05-21T05:46:04;94936.69;;;12.64;76.91
79799;BME280;69283;48.024;11.090;2023-05-21T05:48:29;94943.47;;;12.73;76.07
79799;BME280;69283;48.024;11.090;2023-05-21T05:50:55;94942.00;;;12.79;75.65
79799;BME280;69283;48.024;11.090;2023-05-21T05:53:21;94943.81;;;12.91;76.00
79799;BME280;69283;48.024;11.090;2023-05-21T05:55:46;94941.41;;;13.09;75.88
79799;BME280;69283;48.024;11.090;2023-05-21T05:58:12;94942.06;;;13.22;75.12
79799;BME280;69283;48.024;11.090;2023-05-21T06:00:37;94948.53;;;13.36;74.05
79799;BME280;69283;48.024;11.090;2023-05-21T06:03:02;94947.31;;;13.34;73.29
79799;BME280;69283;48.024;11.090;2023-05-21T06:05:28;94950.81;;;13.34;73.18
79799;BME280;69283;48.024;11.090;2023-05-21T06:07:53;94952.38;;;13.35;73.31
79799;BME280;69283;48.024;11.090;2023-05-21T06:10:18;94959.53;;;13.44;73.52
79799;BME280;69283;48.024;11.090;2023-05-21T06:12:44;94952.63;;;13.50;72.76
79799;BME280;69283;48.024;11.090;2023-05-21T06:15:10;94947.28;;;13.57;71.83
79799;BME280;69283;48.024;11.090;2023-05-21T06:17:35;94946.66;;;13.63;71.53
79799;BME280;69283;48.024;11.090;2023-05-21T06:20:00;94950.63;;;13.69;71.59
79799;BME280;69283;48.024;11.090;2023-05-21T06:22:26;94949.88;;;13.73;71.22
79799;BME280;69283;48.024;11.090;2023-05-21T06:24:51;94946.78;;;13.74;72.30
79799;BME280;69283;48.024;11.090;2023-05-21T06:27:16;94945.41;;;13.84;72.28
79799;BME280;69283;48.024;11.090;2023-05-21T06:29:42;94946.38;;;13.98;71.89
79799;BME280;69283;48.024;11.090;2023-05-21T06:32:07;94950.78;;;14.07;71.40
79799;BME280;69283;48.024;11.090;2023-05-21T06:34:33;94955.91;;;14.12;71.48
79799;BME280;69283;48.024;11.090;2023-05-21T06:36:58;94956.72;;;14.12;71.25
79799;BME280;69283;48.024;11.090;2023-05-21T06:39:23;94962.16;;;14.12;70.99
79799;BME280;69283;48.024;11.090;2023-05-21T06:41:49;94955.13;;;14.11;69.97
79799;BME280;69283;48.024;11.090;2023-05-21T06:44:15;94955.03;;;14.04;70.38
79799;BME280;69283;48.024;11.090;2023-05-21T06:46:40;94954.41;;;14.14;71.44
79799;BME280;69283;48.024;11.090;2023-05-21T06:49:06;94951.25;;;14.12;72.40
79799;BME280;69283;48.024;11.090;2023-05-21T06:51:31;94954.75;;;14.13;72.15
79799;BME280;69283;48.024;11.090;2023-05-21T06:53:57;94960.22;;;14.13;71.96
79799;BME280;69283;48.024;11.090;2023-05-21T06:56:22;94963.78;;;14.17;71.46
79799;BME280;69283;48.024;11.090;2023-05-21T06:58:48;94961.03;;;14.17;71.30
79799;BME280;69283;48.024;11.090;2023-05-21T07:01:13;94965.66;;;14.13;72.08
79799;BME280;69283;48.024;11.090;2023-05-21T07:03:38;94965.38;;;14.21;72.54
79799;BME280;69283;48.024;11.090;2023-05-21T07:06:03;94972.25;;;14.38;72.50
79799;BME280;69283;48.024;11.090;2023-05-21T07:08:29;94973.16;;;14.46;70.78
79799;BME280;69283;48.024;11.090;2023-05-21T07:10:54;94961.16;;;14.50;69.94
79799;BME280;69283;48.024;11.090;2023-05-21T07:13:22;94974.06;;;14.57;69.61
79799;BME280;69283;48.024;11.090;2023-05-21T07:15:48;94976.53;;;14.66;69.50
79799;BME280;69283;48.024;11.090;2023-05-21T07:18:13;94975.53;;;14.81;66.72
79799;BME280;69283;48.024;11.090;2023-05-21T07:20:38;94966.38;;;14.96;66.83
79799;BME280;69283;48.024;11.090;2023-05-21T07:23:04;94968.88;;;15.12;65.60
79799;BME280;69283;48.024;11.090;2023-05-21T07:25:29;94976.50;;;15.33;63.99
79799;BME280;69283;48.024;11.090;2023-05-21T07:27:55;94979.34;;;15.43;62.57
79799;BME280;69283;48.024;11.090;2023-05-21T07:30:20;94976.28;;;15.52;60.34
79799;BME280;69283;48.024;11.090;2023-05-21T07:32:46;94982.63;;;15.60;59.52
79799;BME280;69283;48.024;11.090;2023-05-21T07:35:11;94975.31;;;15.71;61.80
79799;BME280;69283;48.024;11.090;2023-05-21T07:37:36;94976.22;;;15.82;62.10
79799;BME280;69283;48.024;11.090;2023-05-21T07:40:02;94971.97;;;15.92;62.38
79799;BME280;69283;48.024;11.090;2023-05-21T07:42:28;94972.88;;;16.06;62.87
79799;BME280;69283;48.024;11.090;2023-05-21T07:44:53;94973.03;;;16.31;60.85
79799;BME280;69283;48.024;11.090;2023-05-21T07:47:18;94966.88;;;16.49;60.67
79799;BME280;69283;48.024;11.090;2023-05-21T07:49:44;94976.00;;;16.67;59.84
79799;BME280;69283;48.024;11.090;2023-05-21T07:52:09;94963.13;;;16.78;58.24
79799;BME280;69283;48.024;11.090;2023-05-21T07:54:34;94964.34;;;16.88;56.54
79799;BME280;69283;48.024;11.090;2023-05-21T07:57:00;94965.53;;;16.97;56.90
79799;BME280;69283;48.024;11.090;2023-05-21T07:59:28;94964.81;;;17.11;56.66
79799;BME280;69283;48.024;11.090;2023-05-21T08:01:53;94967.19;;;17.20;56.19
79799;BME280;69283;48.024;11.090;2023-05-21T08:04:19;94968.78;;;17.35;54.52
79799;BME280;69283;48.024;11.090;2023-05-21T08:06:44;94969.22;;;17.51;55.73
79799;BME280;69283;48.024;11.090;2023-05-21T08:09:10;94971.97;;;17.66;53.32
79799;BME280;69283;48.024;11.090;2023-05-21T08:11:36;94974.34;;;17.71;54.65
79799;BME280;69283;48.024;11.090;2023-05-21T08:14:01;94976.69;;;17.79;54.02
79799;BME280;69283;48.024;11.090;2023-05-21T08:16:27;94976.31;;;17.91;52.91
79799;BME280;69283;48.024;11.090;2023-05-21T08:18:52;94972.41;;;18.03;52.26
79799;BME280;69283;48.024;11.090;2023-05-21T08:21:17;94970.81;;;18.06;52.34
79799;BME280;69283;48.024;11.090;2023-05-21T08:23:43;94969.25;;;18.15;52.14
79799;BME280;69283;48.024;11.090;2023-05-21T08:26:08;94970.78;;;18.20;52.24
79799;BME280;69283;48.024;11.090;2023-05-21T08:28:37;94978.22;;;18.34;51.49
79799;BME280;69283;48.024;11.090;2023-05-21T08:31:02;94972.69;;;18.55;52.83
79799;BME280;69283;48.024;11.090;2023-05-21T08:33:28;94973.44;;;18.77;50.82
79799;BME280;69283;48.024;11.090;2023-05-21T08:35:53;94975.34;;;18.94;51.33
79799;BME280;69283;48.024;11.090;2023-05-21T08:38:18;94984.63;;;19.25;53.39
79799;BME280;69283;48.024;11.090;2023-05-21T08:40:45;94973.50;;;19.50;50.58
79799;BME280;69283;48.024;11.090;2023-05-21T08:43:11;94976.97;;;19.61;49.27
79799;BME280;69283;48.024;11.090;2023-05-21T08:45:41;94972.19;;;19.72;49.20
79799;BME280;69283;48.024;11.090;2023-05-21T08:48:09;94974.09;;;19.83;48.78
79799;BME280;69283;48.024;11.090;2023-05-21T08:50:35;94980.38;;;19.83;48.31
79799;BME280;69283;48.024;11.090;2023-05-21T08:53:01;94971.69;;;19.88;48.48
79799;BME280;69283;48.024;11.090;2023-05-21T08:55:26;94975.22;;;19.89;49.47
79799;BME280;69283;48.024;11.090;2023-05-21T08:57:53;94972.72;;;20.05;49.55
79799;BME280;69283;48.024;11.090;2023-05-21T09:00:19;94974.19;;;20.17;49.98
79799;BME280;69283;48.024;11.090;2023-05-21T09:02:49;94976.91;;;20.24;51.09
79799;BME280;69283;48.024;11.090;2023-05-21T09:05:15;94975.53;;;20.39;50.66
79799;BME280;69283;48.024;11.090;2023-05-21T09:07:51;94982.44;;;20.61;50.84
79799;BME280;69283;48.024;11.090;2023-05-21T09:10:29;94981.53;;;20.72;50.13
79799;BME280;69283;48.024;11.090;2023-05-21T09:12:58;94978.28;;;20.80;49.50
79799;BME280;69283;48.024;11.090;2023-05-21T09:15:24;94983.69;;;20.91;49.63
79799;BME280;69283;48.024;11.090;2023-05-21T09:17:49;94978.19;;;20.91;48.33
79799;BME280;69283;48.024;11.090;2023-05-21T09:20:15;94986.41;;;20.94;48.44
79799;BME280;69283;48.024;11.090;2023-05-21T09:22:42;94979.69;;;20.95;49.52
79799;BME280;69283;48.024;11.090;2023-05-21T09:25:09;94985.53;;;21.01;49.70
79799;BME280;69283;48.024;11.090;2023-05-21T09:27:35;94971.91;;;21.21;49.47
79799;BME280;69283;48.024;11.090;2023-05-21T09:30:02;94980.56;;;21.19;47.93
79799;BME280;69283;48.024;11.090;2023-05-21T09:32:27;94974.66;;;21.21;47.81
79799;BME280;69283;48.024;11.090;2023-05-21T09:34:53;94977.81;;;21.19;48.65
79799;BME280;69283;48.024;11.090;2023-05-21T09:37:18;94975.03;;;21.23;48.48
79799;BME280;69283;48.024;11.090;2023-05-21T09:39:46;94973.47;;;21.25;47.67
79799;BME280;69283;48.024;11.090;2023-05-21T09:42:12;94976.06;;;21.36;48.71
79799;BME280;69283;48.024;11.090;2023-05-21T09:44:37;94978.09;;;21.32;46.93
79799;BME280;69283;48.024;11.090;2023-05-21T09:47:02;94975.28;;;21.36;47.87
79799;BME280;69283;48.024;11.090;2023-05-21T09:49:28;94978.59;;;21.54;48.08
79799;BME280;69283;48.024;11.090;2023-05-21T09:51:55;94975.63;;;21.68;47.32
79799;BME280;69283;48.024;11.090;2023-05-21T09:54:22;94975.16;;;21.73;47.23
79799;BME280;69283;48.024;11.090;2023-05-21T09:56:48;94984.88;;;21.81;46.79
79799;BME280;69283;48.024;11.090;2023-05-21T09:59:15;94975.44;;;21.79;46.49
79799;BME280;69283;48.024;11.090;2023-05-21T10:01:41;94979.03;;;21.76;45.80
79799;BME280;69283;48.024;11.090;2023-05-21T10:04:08;94977.78;;;21.80;45.28
79799;BME280;69283;48.024;11.090;2023-05-21T10:06:36;94986.44;;;21.82;46.39
79799;BME280;69283;48.024;11.090;2023-05-21T10:09:09;94992.28;;;21.88;45.03
79799;BME280;69283;48.024;11.090;2023-05-21T10:11:35;94978.53;;;21.84;44.56
79799;BME280;69283;48.024;11.090;2023-05-21T10:14:08;94984.72;;;21.92;45.08
79799;BME280;69283;48.024;11.090;2023-05-21T10:16:35;94979.03;;;22.03;44.19
79799;BME280;69283;48.024;11.090;2023-05-21T10:19:01;94981.91;;;21.96;42.93
79799;BME280;69283;48.024;11.090;2023-05-21T10:21:27;94981.53;;;21.94;43.19
79799;BME280;69283;48.024;11.090;2023-05-21T10:23:54;94976.13;;;21.86;42.09
79799;BME280;69283;48.024;11.090;2023-05-21T10:26:22;94980.09;;;21.85;39.95
79799;BME280;69283;48.024;11.090;2023-05-21T10:28:49;94984.00;;;21.88;41.17
79799;BME280;69283;48.024;11.090;2023-05-21T10:31:15;94977.34;;;21.85;41.53
79799;BME280;69283;48.024;11.090;2023-05-21T10:33:42;94976.97;;;21.83;40.16
79799;BME280;69283;48.024;11.090;2023-05-21T10:36:07;94970.63;;;21.86;39.88
79799;BME280;69283;48.024;11.090;2023-05-21T10:38:34;94970.22;;;21.88;39.71
79799;BME280;69283;48.024;11.090;2023-05-21T10:41:01;94973.63;;;21.96;38.75
79799;BME280;69283;48.024;11.090;2023-05-21T10:46:22;94969.13;;;22.09;39.47
79799;BME280;69283;48.024;11.090;2023-05-21T10:48:58;94964.72;;;22.11;39.13
79799;BME280;69283;48.024;11.090;2023-05-21T10:51:44;94974.50;;;22.16;37.58
79799;BME280;69283;48.024;11.090;2023-05-21T10:54:31;94972.22;;;22.11;38.24
79799;BME280;69283;48.024;11.090;2023-05-21T11:00:00;94965.75;;;22.21;36.71
79799;BME280;69283;48.024;11.090;2023-05-21T11:02:26;94970.13;;;22.19;37.00
79799;BME280;69283;48.024;11.090;2023-05-21T11:05:00;94966.59;;;22.18;35.61
79799;BME280;69283;48.024;11.090;2023-05-21T11:07:58;94966.47;;;22.25;38.89
79799;BME280;69283;48.024;11.090;2023-05-21T11:10:43;94975.41;;;22.33;36.53
79799;BME280;69283;48.024;11.090;2023-05-21T11:13:14;94972.09;;;22.41;37.44
79799;BME280;69283;48.024;11.090;2023-05-21T11:21:03;94972.69;;;22.53;37.84
79799;BME280;69283;48.024;11.090;2023-05-21T11:23:51;94970.16;;;22.62;36.96
79799;BME280;69283;48.024;11.090;2023-05-21T11:26:21;94970.03;;;22.69;36.91
79799;BME280;69283;48.024;11.090;2023-05-21T11:29:07;94972.38;;;22.70;36.51
79799;BME280;69283;48.024;11.090;2023-05-21T11:31:34;94969.38;;;22.85;37.05
79799;BME280;69283;48.024;11.090;2023-05-21T11:34:21;94975.19;;;22.90;36.51
79799;BME280;69283;48.024;11.090;2023-05-21T11:39:45;94963.97;;;22.97;35.27
79799;BME280;69283;48.024;11.090;2023-05-21T11:42:11;94960.72;;;23.02;34.64
79799;BME280;69283;48.024;11.090;2023-05-21T11:44:46;94965.41;;;23.05;34.43
79799;BME280;69283;48.024;11.090;2023-05-21T11:47:14;94962.13;;;23.11;35.25
79799;BME280;69283;48.024;11.090;2023-05-21T11:49:40;94962.91;;;23.11;34.13
79799;BME280;69283;48.024;11.090;2023-05-21T11:52:07;94963.09;;;23.20;34.63
79799;BME280;69283;48.024;11.090;2023-05-21T11:54:40;94958.16;;;23.31;32.60
79799;BME280;69283;48.024;11.090;2023-05-21T11:57:08;94955.66;;;23.37;33.73
79799;BME280;69283;48.024;11.090;2023-05-21T11:59:34;94952.03;;;23.40;33.41
79799;BME280;69283;48.024;11.090;2023-05-21T12:02:01;94949.56;;;23.46;34.47
79799;BME280;69283;48.024;11.090;2023-05-21T12:04:33;94950.69;;;23.48;33.50
79799;BME280;69283;48.024;11.090;2023-05-21T12:07:02;94955.69;;;23.53;32.99
79799;BME280;69283;48.024;11.090;2023-05-21T12:09:29;94955.56;;;23.60;32.76
79799;BME280;69283;48.024;11.090;2023-05-21T12:11:54;94946.81;;;23.62;32.40
79799;BME280;69283;48.024;11.090;2023-05-21T12:14:20;94943.72;;;23.60;32.53
79799;BME280;69283;48.024;11.090;2023-05-21T12:16:48;94946.19;;;23.54;32.36
79799;BME280;69283;48.024;11.090;2023-05-21T12:19:16;94937.41;;;23.59;30.80
79799;BME280;69283;48.024;11.090;2023-05-21T12:21:41;94935.75;;;23.62;32.04
79799;BME280;69283;48.024;11.090;2023-05-21T12:24:07;94942.34;;;23.68;32.35
79799;BME280;69283;48.024;11.090;2023-05-21T12:26:32;94945.13;;;23.68;31.73
79799;BME280;69283;48.024;11.090;2023-05-21T12:29:00;94939.69;;;23.64;30.46
79799;BME280;69283;48.024;11.090;2023-05-21T12:31:29;94940.50;;;23.61;30.52
79799;BME280;69283;48.024;11.090;2023-05-21T12:33:54;94940.13;;;23.63;31.13
79799;BME280;69283;48.024;11.090;2023-05-21T12:36:29;94945.34;;;23.57;31.15
79799;BME280;69283;48.024;11.090;2023-05-21T12:38:58;94942.59;;;23.57;31.49
79799;BME280;69283;48.024;11.090;2023-05-21T12:41:23;94943.81;;;23.56;30.80
79799;BME280;69283;48.024;11.090;2023-05-21T12:43:49;94939.44;;;23.55;29.92
79799;BME280;69283;48.024;11.090;2023-05-21T12:46:15;94941.38;;;23.58;30.49
79799;BME280;69283;48.024;11.090;2023-05-21T12:48:48;94936.53;;;23.62;29.56
79799;BME280;69283;48.024;11.090;2023-05-21T12:51:13;94940.38;;;23.69;29.43
79799;BME280;69283;48.024;11.090;2023-05-21T12:53:40;94941.84;;;23.73;29.55
79799;BME280;69283;48.024;11.090;2023-05-21T12:56:15;94944.00;;;23.82;29.59
79799;BME280;69283;48.024;11.090;2023-05-21T12:58:41;94947.81;;;23.88;29.35
79799;BME280;69283;48.024;11.090;2023-05-21T13:01:07;94941.44;;;23.91;29.59
79799;BME280;69283;48.024;11.090;2023-05-21T13:03:33;94949.28;;;23.92;27.93
79799;BME280;69283;48.024;11.090;2023-05-21T13:05:59;94946.09;;;23.94;27.21
79799;BME280;69283;48.024;11.090;2023-05-21T13:08:25;94938.31;;;24.05;27.61